Time;durP1;ratioP1;P1;durP2;ratioP2;P2;SDS_P1;SDS_P2;PMS_P1;PMS_P2;Temp;Humidity;BMP_temperature;BMP_pressure;BME280_temperature;BME280_humidity;BME280_pressure;Samples;Min_cycle;Max_cycle;Signal;HPM_P1;HPM_P2
2023/03/06 00:01:47;;;;;;;3.83;3.42;;;;;;;2.00;87.14;99035.97;10499516;28;20053;-73
2023/03/06 00:06:49;;;;;;;4.03;3.65;;;;;;;1.94;87.31;99036.03;10498888;28;20044;-72
2023/03/06 00:11:51;;;;;;;4.15;3.58;;;;;;;2.08;86.16;99027.22;10499930;28;20037;-72
2023/03/06 00:16:54;;;;;;;4.53;4.13;;;;;;;2.05;85.49;99024.69;10506028;28;20047;-72
2023/03/06 00:21:56;;;;;;;4.43;3.67;;;;;;;2.07;85.08;99028.94;10487923;28;20045;-72
2023/03/06 00:26:58;;;;;;;5.03;4.20;;;;;;;2.10;85.71;99030.66;10505861;28;20063;-72
2023/03/06 00:31:59;;;;;;;4.65;3.72;;;;;;;1.84;87.78;99026.66;10487571;28;20040;-72
2023/03/06 00:37:01;;;;;;;4.82;3.80;;;;;;;1.87;87.20;99011.09;10487928;28;20049;-72
2023/03/06 00:42:03;;;;;;;5.40;4.28;;;;;;;1.95;86.36;99011.84;10487140;28;20494;-72
2023/03/06 00:47:05;;;;;;;4.93;3.70;;;;;;;1.92;86.73;99014.47;10487243;28;20052;-72
2023/03/06 00:52:07;;;;;;;4.65;3.75;;;;;;;1.89;86.88;99004.13;10486754;28;20350;-73
2023/03/06 00:57:09;;;;;;;4.75;4.25;;;;;;;1.83;87.11;98993.88;10486068;28;20469;-73
2023/03/06 01:02:10;;;;;;;4.60;4.20;;;;;;;1.77;87.68;98991.34;10502972;28;20048;-72
2023/03/06 01:07:12;;;;;;;4.70;4.30;;;;;;;1.92;86.14;98991.16;10484987;28;20593;-72
2023/03/06 01:12:14;;;;;;;5.32;4.82;;;;;;;1.81;86.97;98982.66;10485010;28;20044;-72
2023/03/06 01:17:16;;;;;;;5.50;5.00;;;;;;;1.87;86.04;98972.22;10484607;28;20489;-72
2023/03/06 01:22:18;;;;;;;5.53;5.00;;;;;;;1.80;87.23;98972.31;10485096;28;20124;-73
2023/03/06 01:27:20;;;;;;;5.40;4.90;;;;;;;1.74;86.61;98955.97;10502048;28;20106;-72
2023/03/06 01:32:21;;;;;;;5.93;4.90;;;;;;;1.80;86.29;98954.19;10484018;28;20044;-71
2023/03/06 01:37:23;;;;;;;6.05;5.55;;;;;;;1.66;86.95;98946.59;10502297;28;20101;-73
2023/03/06 01:42:25;;;;;;;5.75;5.25;;;;;;;1.58;87.86;98951.88;10503295;28;20540;-73
2023/03/06 01:47:27;;;;;;;5.97;5.45;;;;;;;1.61;87.16;98941.47;10484728;28;20041;-73
2023/03/06 01:52:34;;;;;;;6.38;5.60;;;;;;;1.68;86.75;98940.53;10502479;28;20490;-72
2023/03/06 01:57:43;;;;;;;;;;;;;;;1.64;87.10;98936.28;10502503;28;20382;-72
2023/03/06 02:03:13;;;;;;;6.68;6.07;;;;;;;1.55;87.34;98931.22;10482900;28;19920;-73
2023/03/06 02:08:18;;;;;;;6.70;6.10;;;;;;;1.68;86.30;98929.28;10482724;28;20041;-71
2023/03/06 02:13:20;;;;;;;7.13;6.05;;;;;;;1.61;86.87;98933.72;10482807;28;20418;-71
2023/03/06 02:18:26;;;;;;;6.90;6.22;;;;;;;1.51;87.26;98927.81;10500438;28;20041;-72
2023/03/06 02:23:56;;;;;;;7.05;6.43;;;;;;;1.57;86.61;98921.66;10482227;28;20461;-72
2023/03/06 02:28:58;;;;;;;6.65;6.05;;;;;;;1.61;86.28;98927.69;10482148;28;20044;-72
2023/03/06 02:34:14;;;;;;;6.80;6.05;;;;;;;1.50;87.00;98915.69;10481724;28;20048;-72
2023/03/06 02:39:21;;;;;;;6.65;6.05;;;;;;;1.61;85.17;98906.94;10483206;28;20041;-72
2023/03/06 02:44:24;;;;;;;7.07;6.37;;;;;;;1.49;86.04;98902.78;10481772;28;20048;-72
2023/03/06 02:49:26;;;;;;;6.50;5.90;;;;;;;1.56;85.78;98909.59;10499673;28;20033;-72
2023/03/06 02:54:28;;;;;;;6.90;5.80;;;;;;;1.49;85.58;98892.44;10481645;28;20044;-72
2023/03/06 02:59:30;;;;;;;7.57;6.85;;;;;;;1.44;85.91;98889.91;10499827;28;20044;-73
2023/03/06 03:04:33;;;;;;;7.80;7.05;;;;;;;1.43;85.56;98888.19;10499391;28;20166;-72
2023/03/06 03:09:36;;;;;;;7.53;6.82;;;;;;;1.32;86.32;98879.69;10481185;28;20048;-72
2023/03/06 03:14:38;;;;;;;7.55;6.85;;;;;;;1.36;85.78;98883.09;10481338;28;20055;-69
2023/03/06 03:19:40;;;;;;;7.45;6.70;;;;;;;1.38;85.58;98873.59;10481833;28;20460;-70
2023/03/06 03:24:42;;;;;;;8.00;7.35;;;;;;;1.21;86.69;98871.22;10499343;28;20143;-70
2023/03/06 03:29:44;;;;;;;7.88;7.18;;;;;;;1.13;87.17;98873.06;10497909;28;20064;-70
2023/03/06 03:34:46;;;;;;;8.38;7.57;;;;;;;1.07;87.55;98866.22;10480292;28;20479;-69
2023/03/06 03:39:47;;;;;;;9.02;8.23;;;;;;;1.07;87.37;98860.19;10480815;28;20040;-69
2023/03/06 03:44:50;;;;;;;8.27;7.57;;;;;;;1.19;86.16;98867.78;10464338;28;20452;-69
2023/03/06 03:49:54;;;;;;;8.13;7.32;;;;;;;1.11;86.35;98857.56;10485388;28;20041;-70
2023/03/06 03:54:57;;;;;;;8.07;7.28;;;;;;;1.01;86.89;98846.44;10471239;28;20643;-70
2023/03/06 04:00:00;;;;;;;8.05;7.35;;;;;;;0.93;87.50;98840.53;10487634;28;20051;-70
2023/03/06 04:05:28;;;;;;;8.93;8.02;;;;;;;0.94;87.16;98833.63;10498756;28;20052;-69
2023/03/06 04:10:31;;;;;;;9.32;7.53;;;;;;;1.06;86.18;98830.84;10487510;28;20041;-70
2023/03/06 04:15:33;;;;;;;8.50;7.70;;;;;;;0.98;86.77;98823.19;10487033;28;20055;-70
2023/03/06 04:20:35;;;;;;;7.97;7.28;;;;;;;0.98;86.66;98812.84;10486767;28;20055;-70
2023/03/06 04:25:38;;;;;;;8.68;7.93;;;;;;;1.03;86.37;98811.94;10486815;28;20086;-69
2023/03/06 04:30:42;;;;;;;7.78;7.07;;;;;;;1.10;85.52;98808.38;10486184;28;20044;-70
2023/03/06 04:35:44;;;;;;;8.48;7.68;;;;;;;0.91;86.89;98812.94;10504134;28;20040;-70
2023/03/06 04:40:51;;;;;;;7.95;7.22;;;;;;;1.10;85.25;98804.06;10485981;28;20421;-70
2023/03/06 04:45:53;;;;;;;8.93;7.97;;;;;;;1.03;85.68;98806.75;10504221;28;20040;-70
2023/03/06 04:50:55;;;;;;;8.52;7.72;;;;;;;0.98;85.86;98797.31;10485513;28;20532;-70
2023/03/06 04:55:56;;;;;;;7.95;7.18;;;;;;;0.98;85.66;98799.91;10503702;28;20044;-70
2023/03/06 05:00:58;;;;;;;8.40;7.68;;;;;;;0.95;85.21;98792.19;10485338;28;20432;-69
2023/03/06 05:06:00;;;;;;;8.77;7.97;;;;;;;0.97;84.46;98784.38;10503016;28;20516;-70
2023/03/06 05:11:02;;;;;;;9.00;8.10;;;;;;;0.93;84.39;98782.72;10484702;28;20044;-69
2023/03/06 05:16:05;;;;;;;9.35;8.43;;;;;;;0.90;84.05;98786.22;10502904;28;20040;-70
2023/03/06 05:21:08;;;;;;;9.45;8.10;;;;;;;0.83;84.72;98786.31;10502916;28;20055;-70
2023/03/06 05:26:11;;;;;;;8.55;7.85;;;;;;;0.84;84.32;98783.72;10484633;28;20075;-70
2023/03/06 05:31:13;;;;;;;10.70;9.60;;;;;;;0.86;84.11;98776.78;10502682;28;20115;-70
2023/03/06 05:36:15;;;;;;;10.05;9.05;;;;;;;0.81;84.40;98776.00;10502429;28;20136;-70
2023/03/06 05:41:16;;;;;;;10.02;9.10;;;;;;;0.73;84.85;98776.06;10501622;28;20090;-70
2023/03/06 05:46:19;;;;;;;10.75;9.75;;;;;;;0.65;84.90;98766.69;10483519;28;20049;-70
2023/03/06 05:51:21;;;;;;;10.18;9.27;;;;;;;0.70;85.42;98768.34;10501038;28;20090;-69
2023/03/06 05:56:23;;;;;;;9.38;8.48;;;;;;;0.81;84.38;98765.63;10501894;28;20052;-69
2023/03/06 06:01:27;;;;;;;9.82;9.02;;;;;;;0.81;84.65;98751.84;10504045;28;20043;-70
2023/03/06 06:06:29;;;;;;;13.73;10.38;;;;;;;0.79;84.70;98761.34;10514783;28;20100;-70
2023/03/06 06:11:31;;;;;;;10.57;9.57;;;;;;;0.84;84.69;98763.03;10515654;28;20044;-70
2023/03/06 06:16:34;;;;;;;11.50;10.43;;;;;;;0.91;84.31;98764.63;10516294;28;20050;-69
2023/03/06 06:21:37;;;;;;;10.93;9.93;;;;;;;1.03;82.96;98773.13;10517759;28;20095;-69
2023/03/06 06:26:41;;;;;;;12.50;9.98;;;;;;;0.93;83.65;98770.66;10524221;28;20044;-70
2023/03/06 06:31:43;;;;;;;10.30;9.38;;;;;;;0.97;83.11;98766.28;10512680;28;20033;-70
2023/03/06 06:36:46;;;;;;;13.15;10.60;;;;;;;0.90;83.57;98757.75;10512897;28;20044;-69
2023/03/06 06:41:50;;;;;;;10.68;9.70;;;;;;;1.07;82.59;98760.13;10512776;28;20058;-70
2023/03/06 06:47:10;;;;;;;11.65;10.60;;;;;;;1.03;83.38;98763.63;10513851;28;20060;-70
2023/03/06 06:52:28;;;;;;;11.18;10.13;;;;;;;1.19;81.83;98759.06;10501256;28;20064;-70
2023/03/06 06:57:30;;;;;;;11.40;10.30;;;;;;;1.22;82.39;98761.63;10501820;28;20426;-70
2023/03/06 07:02:35;;;;;;;11.25;10.25;;;;;;;1.25;82.29;98753.81;10501634;28;20036;-69
2023/03/06 07:07:37;;;;;;;11.23;10.02;;;;;;;1.49;80.45;98753.44;10500851;28;20044;-70
2023/03/06 07:12:39;;;;;;;12.30;11.13;;;;;;;1.62;79.90;98742.88;10500295;28;20139;-70
2023/03/06 07:17:41;;;;;;;17.42;11.93;;;;;;;1.65;80.40;98748.88;10481926;28;20134;-70
2023/03/06 07:22:43;;;;;;;11.13;10.07;;;;;;;1.86;78.88;98744.19;10498164;28;20044;-69
2023/03/06 07:27:53;;;;;;;12.35;11.23;;;;;;;2.00;78.75;98750.88;10500705;28;20044;-69
2023/03/06 07:32:57;;;;;;;11.95;10.85;;;;;;;2.10;76.65;98746.38;10498949;28;20504;-70
2023/03/06 07:37:59;;;;;;;13.82;12.43;;;;;;;2.05;78.23;98748.19;10480413;28;20049;-69
2023/03/06 07:43:01;;;;;;;11.73;10.52;;;;;;;2.17;77.30;98742.78;10497971;28;20048;-69
2023/03/06 07:48:26;;;;;;;12.10;9.68;;;;;;;2.23;76.18;98749.59;10479576;28;20422;-69
2023/03/06 07:53:28;;;;;;;11.13;10.13;;;;;;;2.40;75.00;98750.13;10497589;28;20043;-69
2023/03/06 07:58:29;;;;;;;12.10;9.98;;;;;;;2.47;74.34;98751.69;10497696;28;20056;-69
2023/03/06 08:03:32;;;;;;;11.50;10.43;;;;;;;2.56;74.80;98757.59;10479128;28;20055;-69
2023/03/06 08:08:35;;;;;;;10.85;9.85;;;;;;;2.89;72.32;98749.13;10497062;28;20047;-70
2023/03/06 08:13:37;;;;;;;11.82;9.27;;;;;;;2.95;72.44;98748.13;10496717;28;20058;-70
2023/03/06 08:18:39;;;;;;;10.68;9.60;;;;;;;2.98;70.96;98754.13;10497755;28;20048;-69
2023/03/06 08:23:42;;;;;;;10.40;9.23;;;;;;;3.10;70.97;98752.13;10479139;28;20037;-69
2023/03/06 08:28:43;;;;;;;13.55;9.95;;;;;;;3.01;71.87;98751.47;10496840;28;20048;-69
2023/03/06 08:33:45;;;;;;;11.07;10.07;;;;;;;3.14;71.49;98759.81;10499402;28;20041;-69
2023/03/06 08:38:47;;;;;;;10.07;9.10;;;;;;;3.36;70.01;98765.38;10486007;28;20040;-69
2023/03/06 08:43:49;;;;;;;10.18;9.10;;;;;;;3.39;68.67;98760.13;10504330;28;20052;-69
2023/03/06 08:48:51;;;;;;;12.38;10.90;;;;;;;3.27;70.71;98760.41;10486459;28;20094;-70
2023/03/06 08:53:53;;;;;;;13.93;10.77;;;;;;;3.44;69.50;98760.88;10485505;28;20402;-69
2023/03/06 08:58:57;;;;;;;10.45;9.45;;;;;;;3.26;69.14;98756.94;10503085;28;20045;-69
2023/03/06 09:04:00;;;;;;;11.75;10.57;;;;;;;3.16;70.79;98757.22;10503018;28;20106;-70
2023/03/06 09:09:04;;;;;;;12.30;11.18;;;;;;;3.17;70.77;98762.34;10485390;28;20067;-70
2023/03/06 09:14:05;;;;;;;13.85;12.55;;;;;;;3.29;72.43;98769.88;10502840;28;20094;-70
2023/03/06 09:19:07;;;;;;;12.18;10.93;;;;;;;3.67;69.54;98754.28;10503021;28;20494;-70
2023/03/06 09:24:09;;;;;;;12.95;11.68;;;;;;;3.74;69.06;98758.44;10502028;28;20049;-71
2023/03/06 09:29:11;;;;;;;14.05;11.98;;;;;;;3.81;69.28;98749.59;10483987;28;20052;-70
2023/03/06 09:34:13;;;;;;;16.55;12.18;;;;;;;3.94;70.00;98751.00;10502130;28;20067;-70
2023/03/06 09:39:14;;;;;;;16.23;12.23;;;;;;;4.36;68.40;98748.16;10501716;28;20522;-70
2023/03/06 09:44:21;;;;;;;14.50;13.07;;;;;;;4.34;65.83;98741.28;10483133;28;20044;-70
2023/03/06 09:49:41;;;;;;;13.98;12.52;;;;;;;4.36;67.75;98742.94;10502331;28;20041;-69
2023/03/06 09:54:46;;;;;;;15.15;13.85;;;;;;;4.54;66.92;98746.78;10501761;28;20055;-70
2023/03/06 09:59:53;;;;;;;13.85;12.45;;;;;;;4.73;65.29;98740.16;10500562;28;20028;-70
2023/03/06 10:04:59;;;;;;;14.00;12.38;;;;;;;4.99;64.31;98739.41;10500791;28;20162;-70
2023/03/06 10:10:05;;;;;;;14.80;13.45;;;;;;;4.79;65.36;98739.16;10501000;28;20039;-69
2023/03/06 10:15:25;;;;;;;16.85;15.27;;;;;;;4.54;67.60;98733.78;10499880;28;20509;-69
2023/03/06 10:20:35;;;;;;;14.05;12.82;;;;;;;4.71;68.89;98741.13;10500168;28;20086;-70
2023/03/06 10:25:59;;;;;;;15.38;13.93;;;;;;;4.74;67.88;98726.28;10500179;28;20040;-70
2023/03/06 10:31:24;;;;;;;15.60;14.02;;;;;;;4.47;69.30;98722.72;10481178;28;20498;-70
2023/03/06 10:36:27;;;;;;;15.90;14.50;;;;;;;4.69;69.94;98729.88;10499397;28;20045;-70
2023/03/06 10:41:31;;;;;;;15.57;14.13;;;;;;;4.64;69.25;98727.41;10499305;28;20045;-70
2023/03/06 10:46:41;;;;;;;15.88;14.48;;;;;;;4.52;68.69;98725.19;10499401;28;20067;-70
2023/03/06 10:52:05;;;;;;;15.57;14.10;;;;;;;4.73;70.07;98731.50;10499716;28;20036;-70
2023/03/06 10:57:31;;;;;;;17.20;15.50;;;;;;;4.70;68.19;98716.84;10497851;28;20486;-69
2023/03/06 11:02:39;;;;;;;17.13;15.63;;;;;;;4.45;71.11;98727.09;10494025;28;20053;-70
2023/03/06 11:07:59;;;;;;;15.60;14.00;;;;;;;4.29;70.71;98716.28;10499606;28;20076;-70
2023/03/06 11:13:07;;;;;;;17.58;15.27;;;;;;;4.47;73.42;98714.91;10480529;28;20402;-70
2023/03/06 11:18:08;;;;;;;18.95;17.25;;;;;;;4.40;72.14;98722.91;10480720;28;20048;-70
2023/03/06 11:23:35;;;;;;;17.10;15.40;;;;;;;3.97;79.52;98717.09;10498517;28;20048;-69
2023/03/06 11:28:39;;;;;;;17.23;15.60;;;;;;;3.62;84.62;98714.56;10498591;28;20413;-70
2023/03/06 11:33:51;;;;;;;18.77;16.98;;;;;;;3.48;87.60;98713.16;10497964;28;20051;-69
2023/03/06 11:38:53;;;;;;;19.08;17.10;;;;;;;3.51;88.31;98701.84;10498312;28;20040;-70
2023/03/06 11:44:18;;;;;;;19.35;17.48;;;;;;;3.46;87.27;98708.91;10479803;28;20040;-71
2023/03/06 11:49:29;;;;;;;18.85;17.10;;;;;;;3.67;88.07;98702.28;10479707;28;20052;-70
2023/03/06 11:54:32;;;;;;;18.35;16.63;;;;;;;3.86;90.66;98685.34;10496149;28;20086;-70
2023/03/06 11:59:55;;;;;;;19.83;18.00;;;;;;;4.16;87.29;98675.88;10497604;28;20132;-70
2023/03/06 12:05:09;;;;;;;19.25;17.55;;;;;;;4.43;83.33;98678.59;10480189;28;20045;-70
2023/03/06 12:10:23;;;;;;;20.50;18.70;;;;;;;4.47;84.04;98670.66;10502310;28;20072;-71
2023/03/06 12:15:43;;;;;;;17.70;16.17;;;;;;;4.63;76.34;98662.41;10505702;28;20052;-70
2023/03/06 12:20:47;;;;;;;19.02;17.33;;;;;;;4.61;80.38;98666.81;10506758;28;20051;-71
2023/03/06 12:26:01;;;;;;;18.88;17.08;;;;;;;4.78;79.95;98662.81;10487930;28;20086;-70
2023/03/06 12:31:23;;;;;;;17.75;16.08;;;;;;;4.90;76.73;98664.16;10504769;28;20036;-71
2023/03/06 12:36:41;;;;;;;18.27;16.67;;;;;;;4.87;80.32;98652.97;10504668;28;20041;-71
2023/03/06 12:42:18;;;;;;;17.20;15.48;;;;;;;4.75;77.49;98657.69;10504144;28;20051;-70
2023/03/06 12:47:27;;;;;;;21.65;17.95;;;;;;;4.66;79.37;98647.56;10504003;28;20486;-70
2023/03/06 12:52:32;;;;;;;16.20;14.73;;;;;;;4.53;77.46;98659.22;10503700;28;20047;-70
2023/03/06 12:57:33;;;;;;;17.40;15.90;;;;;;;4.45;79.52;98662.03;10503471;28;20047;-71
2023/03/06 13:02:47;;;;;;;16.55;15.15;;;;;;;3.68;86.88;98672.84;10503497;28;20033;-71
2023/03/06 13:07:56;;;;;;;16.20;14.80;;;;;;;3.13;92.69;98663.78;10504121;28;20072;-70
2023/03/06 13:13:03;;;;;;;20.25;17.05;;;;;;;2.98;96.86;98658.06;10503797;28;20101;-69
2023/03/06 13:18:20;;;;;;;20.88;18.77;;;;;;;2.71;100.00;98671.69;10503543;28;20043;-70
2023/03/06 13:23:31;;;;;;;18.80;17.00;;;;;;;2.56;100.00;98661.63;10501950;28;20449;-70
2023/03/06 13:28:49;;;;;;;20.35;18.27;;;;;;;2.73;100.00;98652.56;10502319;28;20056;-70
2023/03/06 13:33:55;;;;;;;22.70;20.33;;;;;;;2.91;100.00;98659.09;10502361;28;20067;-70
2023/03/06 13:39:07;;;;;;;18.05;16.45;;;;;;;3.10;100.00;98650.88;10484585;28;20041;-71
2023/03/06 13:44:39;;;;;;;23.35;20.98;;;;;;;3.22;100.00;98648.00;10502679;28;20036;-71
2023/03/06 13:49:45;;;;;;;23.95;19.88;;;;;;;3.34;100.00;98636.47;10498904;28;20063;-71
2023/03/06 13:54:55;;;;;;;20.40;18.60;;;;;;;3.46;100.00;98634.41;10502307;28;20375;-70
2023/03/06 14:00:18;;;;;;;20.23;18.33;;;;;;;3.69;99.78;98632.97;10501695;28;20477;-71
2023/03/06 14:05:20;;;;;;;20.58;18.58;;;;;;;3.75;100.00;98625.84;10482791;28;20044;-71
2023/03/06 14:10:24;;;;;;;19.40;17.60;;;;;;;3.98;99.24;98620.00;10500530;28;20041;-70
2023/03/06 14:15:46;;;;;;;22.13;17.27;;;;;;;4.13;93.94;98623.09;10500585;28;20052;-70
2023/03/06 14:20:53;;;;;;;18.08;16.48;;;;;;;3.95;89.98;98622.72;10500521;28;20056;-70
2023/03/06 14:26:13;;;;;;;;;;;;;;;3.92;90.75;98627.13;10501023;28;20044;-70
2023/03/06 14:31:18;;;;;;;17.80;16.30;;;;;;;3.93;94.31;98632.28;10500160;28;19966;-70
2023/03/06 14:36:32;;;;;;;17.55;15.98;;;;;;;4.04;92.49;98625.06;10499706;28;20110;-72
2023/03/06 14:41:35;;;;;;;16.92;15.32;;;;;;;4.24;91.50;98621.88;10499896;28;20036;-71
2023/03/06 14:46:37;;;;;;;15.63;14.30;;;;;;;4.30;88.71;98613.06;10499557;28;20072;-71
2023/03/06 14:51:59;;;;;;;15.77;14.48;;;;;;;4.11;88.51;98607.53;10500370;28;20051;-72
2023/03/06 14:57:14;;;;;;;16.08;14.68;;;;;;;4.22;86.30;98613.28;10498961;28;20054;-70
2023/03/06 15:02:22;;;;;;;14.35;13.15;;;;;;;4.28;86.36;98612.25;10498767;28;20402;-71
2023/03/06 15:07:28;;;;;;;13.57;12.40;;;;;;;4.20;86.65;98609.00;10500062;28;20033;-70
2023/03/06 15:12:34;;;;;;;12.52;11.45;;;;;;;4.23;86.69;98608.94;10498874;28;20049;-71
2023/03/06 15:17:44;;;;;;;12.07;11.18;;;;;;;4.09;85.55;98613.69;10605140;22;20092;-72
2023/03/06 15:22:49;;;;;;;11.57;10.57;;;;;;;4.14;85.97;98607.44;10605724;28;20057;-72
2023/03/06 15:28:19;;;;;;;11.27;10.30;;;;;;;4.08;87.67;98610.22;10624587;28;20450;-72
2023/03/06 15:33:27;;;;;;;11.68;10.68;;;;;;;4.10;85.93;98592.81;10624296;28;20122;-72
2023/03/06 15:38:42;;;;;;;10.00;9.20;;;;;;;4.19;84.70;98602.09;10625337;28;20084;-72
2023/03/06 15:43:43;;;;;;;11.30;10.23;;;;;;;4.07;84.96;98605.06;10620138;27;20039;-72
2023/03/06 15:48:53;;;;;;;11.55;10.55;;;;;;;3.92;84.45;98607.19;10589733;27;20043;-72
2023/03/06 15:53:55;;;;;;;11.98;10.98;;;;;;;3.74;86.27;98623.28;10606944;27;20039;-72
2023/03/06 15:59:22;;;;;;;13.43;12.23;;;;;;;3.54;91.52;98645.47;10592899;28;20050;-72
2023/03/06 16:04:24;;;;;;;12.00;10.80;;;;;;;2.47;98.71;98655.72;10571256;28;20054;-72
2023/03/06 16:09:26;;;;;;;12.68;11.57;;;;;;;2.06;100.00;98655.72;10589982;28;20408;-73
2023/03/06 16:14:28;;;;;;;9.48;8.68;;;;;;;1.70;100.00;98652.97;10570572;28;20050;-73
2023/03/06 16:19:29;;;;;;;9.80;9.00;;;;;;;1.59;100.00;98660.06;10615767;27;20399;-72
2023/03/06 16:24:31;;;;;;;10.13;9.13;;;;;;;1.58;100.00;98660.94;10631436;27;20426;-72
2023/03/06 16:29:33;;;;;;;10.68;9.68;;;;;;;1.57;100.00;98661.81;10631188;27;20135;-72
2023/03/06 16:34:35;;;;;;;10.45;9.45;;;;;;;1.62;100.00;98660.84;10619558;27;20484;-72
2023/03/06 16:39:37;;;;;;;11.82;10.80;;;;;;;1.61;100.00;98651.38;10617852;27;20039;-72
2023/03/06 16:44:39;;;;;;;10.90;9.90;;;;;;;1.53;100.00;98645.47;10577716;28;20034;-72
2023/03/06 16:49:41;;;;;;;11.70;10.38;;;;;;;1.62;100.00;98640.13;10575231;27;20043;-72
2023/03/06 16:54:43;;;;;;;11.63;10.52;;;;;;;1.63;100.00;98639.25;10596247;27;20078;-72
2023/03/06 16:59:45;;;;;;;11.80;10.57;;;;;;;1.74;100.00;98632.16;10570456;28;20036;-73
2023/03/06 17:04:47;;;;;;;11.38;10.30;;;;;;;1.69;100.00;98631.38;10571567;28;20438;-72
2023/03/06 17:09:49;;;;;;;9.75;8.85;;;;;;;1.62;100.00;98628.94;10601974;27;20047;-72
2023/03/06 17:14:51;;;;;;;11.82;10.70;;;;;;;1.64;100.00;98630.63;10595057;27;20518;-72
2023/03/06 17:19:53;;;;;;;9.77;8.90;;;;;;;1.58;100.00;98637.63;10611876;27;20112;-73
2023/03/06 17:24:55;;;;;;;10.18;9.13;;;;;;;1.62;100.00;98647.06;10631966;27;20035;-73
2023/03/06 17:29:57;;;;;;;12.25;9.43;;;;;;;1.61;100.00;98651.38;10629932;27;20092;-73
2023/03/06 17:35:00;;;;;;;11.73;10.63;;;;;;;1.64;100.00;98653.03;10629423;27;20476;-72
2023/03/06 17:40:02;;;;;;;14.30;13.02;;;;;;;1.69;100.00;98656.44;10628637;27;20089;-72
2023/03/06 17:45:05;;;;;;;13.05;11.77;;;;;;;1.57;100.00;98660.09;10589079;27;20053;-72
2023/03/06 17:50:07;;;;;;;13.23;11.88;;;;;;;1.42;100.00;98674.16;10586059;28;20052;-74
2023/03/06 17:55:09;;;;;;;12.27;11.18;;;;;;;1.67;100.00;98677.16;10585954;28;20485;-72
2023/03/06 18:00:11;;;;;;;13.07;11.88;;;;;;;1.81;100.00;98676.06;10585356;28;20043;-73
2023/03/06 18:05:16;;;;;;;13.15;11.98;;;;;;;1.70;100.00;98666.75;10586089;28;20032;-72
2023/03/06 18:10:18;;;;;;;13.18;11.88;;;;;;;1.91;100.00;98672.44;10605075;27;20118;-71
2023/03/06 18:15:21;;;;;;;12.52;11.32;;;;;;;1.79;100.00;98665.75;10627299;27;20508;-72
2023/03/06 18:20:23;;;;;;;12.95;11.65;;;;;;;1.87;100.00;98682.00;10608988;27;20039;-72
2023/03/06 18:25:24;;;;;;;12.38;11.27;;;;;;;2.00;100.00;98686.06;10608649;27;20488;-72
2023/03/06 18:30:26;;;;;;;12.10;11.10;;;;;;;1.92;100.00;98679.31;10610222;27;20446;-71
2023/03/06 18:35:28;;;;;;;12.60;11.50;;;;;;;1.78;100.00;98692.53;10626192;27;20031;-72
2023/03/06 18:40:29;;;;;;;12.63;11.52;;;;;;;1.75;100.00;98690.84;10626046;27;20043;-72
2023/03/06 18:45:32;;;;;;;12.77;11.48;;;;;;;1.82;100.00;98690.75;10626207;27;20035;-72
2023/03/06 18:50:34;;;;;;;14.15;12.95;;;;;;;1.88;100.00;98693.22;10627128;27;20047;-72
2023/03/06 18:55:35;;;;;;;13.73;12.43;;;;;;;1.80;100.00;98688.16;10629485;27;20047;-72
2023/03/06 19:00:37;;;;;;;16.25;14.57;;;;;;;1.88;100.00;98688.03;10627199;27;20046;-72
2023/03/06 19:05:44;;;;;;;13.38;12.18;;;;;;;1.83;100.00;98684.69;10626013;27;20046;-73
2023/03/06 19:10:46;;;;;;;14.30;12.88;;;;;;;1.81;100.00;98684.69;10606520;27;20070;-72
2023/03/06 19:15:48;;;;;;;13.70;12.50;;;;;;;1.79;100.00;98698.56;10591634;27;20511;-73
2023/03/06 19:20:50;;;;;;;13.43;12.23;;;;;;;1.96;100.00;98688.75;10624644;27;20043;-73
2023/03/06 19:25:56;;;;;;;13.32;12.18;;;;;;;1.85;100.00;98688.09;10624877;28;20511;-72
2023/03/06 19:30:58;;;;;;;13.50;12.30;;;;;;;1.88;100.00;98693.22;10625277;28;20047;-73
2023/03/06 19:36:01;;;;;;;14.57;13.20;;;;;;;1.93;100.00;98689.66;10625290;28;20043;-73
2023/03/06 19:41:03;;;;;;;13.43;12.13;;;;;;;2.13;100.00;98693.63;10624333;28;20044;-73
2023/03/06 19:46:05;;;;;;;13.05;11.95;;;;;;;2.07;100.00;98686.81;10624610;28;20055;-73
2023/03/06 19:51:07;;;;;;;13.40;12.23;;;;;;;2.00;100.00;98685.22;10623872;28;20039;-72
2023/03/06 19:56:13;;;;;;;14.50;13.10;;;;;;;1.82;100.00;98690.75;10625824;28;20507;-72
2023/03/06 20:01:17;;;;;;;13.90;12.70;;;;;;;1.82;100.00;98693.34;10624515;28;20438;-72
2023/03/06 20:06:19;;;;;;;13.35;12.05;;;;;;;1.80;100.00;98684.72;10624063;28;20051;-72
2023/03/06 20:11:24;;;;;;;13.43;12.23;;;;;;;1.72;100.00;98682.25;10606007;28;20035;-73
2023/03/06 20:16:27;;;;;;;14.75;13.23;;;;;;;1.63;100.00;98675.50;10614945;28;20044;-71
2023/03/06 20:21:31;;;;;;;15.65;14.05;;;;;;;1.63;100.00;98680.69;10600810;28;20115;-72
2023/03/06 20:26:33;;;;;;;15.35;13.90;;;;;;;1.61;100.00;98677.28;10603174;28;20043;-72
2023/03/06 20:31:35;;;;;;;15.98;14.57;;;;;;;1.44;100.00;98679.31;10609630;27;20038;-72
2023/03/06 20:36:39;;;;;;;15.25;13.85;;;;;;;1.43;100.00;98675.00;10612401;27;20427;-72
2023/03/06 20:41:41;;;;;;;15.02;13.57;;;;;;;1.20;100.00;98675.41;10632347;27;20039;-72
2023/03/06 20:46:44;;;;;;;15.45;13.95;;;;;;;1.15;100.00;98664.22;10596078;27;20058;-73
2023/03/06 20:51:46;;;;;;;17.08;15.38;;;;;;;1.14;100.00;98668.56;10612270;27;20122;-73
2023/03/06 20:56:48;;;;;;;16.05;14.55;;;;;;;1.04;100.00;98668.72;10630757;27;20511;-73
2023/03/06 21:01:50;;;;;;;17.23;15.68;;;;;;;1.24;100.00;98653.75;10631373;27;20069;-73
2023/03/06 21:06:53;;;;;;;16.90;15.48;;;;;;;1.31;100.00;98649.31;10630777;27;20072;-72
2023/03/06 21:11:54;;;;;;;16.77;15.27;;;;;;;1.25;100.00;98642.53;10611441;27;20412;-73
2023/03/06 21:16:56;;;;;;;18.33;16.60;;;;;;;1.21;100.00;98633.09;10591956;22;20040;-73
2023/03/06 21:21:58;;;;;;;18.55;16.92;;;;;;;1.18;100.00;98633.97;10568586;28;20050;-72
2023/03/06 21:27:00;;;;;;;19.38;17.58;;;;;;;1.17;100.00;98634.03;10589731;28;20447;-72
2023/03/06 21:32:01;;;;;;;19.58;17.70;;;;;;;0.99;100.00;98624.81;10589919;28;20046;-72
2023/03/06 21:37:03;;;;;;;18.75;17.05;;;;;;;0.96;100.00;98617.94;10570304;28;20063;-72
2023/03/06 21:42:05;;;;;;;19.25;17.42;;;;;;;0.87;100.00;98614.66;10588905;28;20040;-73
2023/03/06 21:47:07;;;;;;;21.35;19.08;;;;;;;0.90;100.00;98612.88;10588121;28;20463;-72
2023/03/06 21:52:09;;;;;;;18.77;16.98;;;;;;;0.94;100.00;98604.19;10587416;28;20045;-72
2023/03/06 21:57:10;;;;;;;18.50;16.85;;;;;;;0.90;100.00;98607.72;10568577;28;20557;-72
2023/03/06 22:02:12;;;;;;;19.95;17.95;;;;;;;0.89;100.00;98603.41;10586827;28;20027;-72
2023/03/06 22:07:14;;;;;;;18.25;16.52;;;;;;;0.86;100.00;98606.03;10569103;28;20048;-72
2023/03/06 22:12:16;;;;;;;18.35;16.60;;;;;;;0.83;100.00;98607.81;10585961;28;20403;-71
2023/03/06 22:17:17;;;;;;;19.13;17.33;;;;;;;0.81;100.00;98602.69;10586129;28;20149;-72
2023/03/06 22:22:19;;;;;;;19.90;17.90;;;;;;;0.68;100.00;98596.84;10586111;28;20495;-71
2023/03/06 22:27:21;;;;;;;18.75;16.85;;;;;;;0.84;100.00;98600.06;10585532;28;20118;-73
2023/03/06 22:32:23;;;;;;;18.17;16.58;;;;;;;0.85;100.00;98585.38;10587126;28;20047;-71
2023/03/06 22:37:25;;;;;;;19.45;17.75;;;;;;;0.72;100.00;98587.31;10585404;28;20559;-71
2023/03/06 22:42:27;;;;;;;19.20;17.27;;;;;;;0.96;100.00;98580.88;10586706;28;20554;-71
2023/03/06 22:47:29;;;;;;;17.77;16.15;;;;;;;0.83;100.00;98579.38;10585351;28;20039;-71
2023/03/06 22:52:31;;;;;;;18.17;16.58;;;;;;;0.84;100.00;98587.13;10585832;28;20036;-73
2023/03/06 22:57:33;;;;;;;19.02;17.17;;;;;;;0.88;100.00;98590.50;10586191;28;20049;-72
2023/03/06 23:02:35;;;;;;;18.52;16.92;;;;;;;0.81;100.00;98587.16;10585898;28;20097;-72
2023/03/06 23:07:37;;;;;;;17.98;16.45;;;;;;;0.87;100.00;98587.06;10586090;28;20048;-71
2023/03/06 23:12:40;;;;;;;19.48;17.77;;;;;;;0.73;100.00;98579.50;10584596;28;20040;-73
2023/03/06 23:18:00;;;;;;;18.50;16.80;;;;;;;0.74;100.00;98576.03;10584421;28;20043;-72
2023/03/06 23:23:23;;;;;;;19.95;18.08;;;;;;;0.67;100.00;98574.44;10585216;28;20142;-72
2023/03/06 23:28:26;;;;;;;20.77;18.95;;;;;;;0.77;100.00;98563.94;10584745;28;20043;-71